Mesa Verde National Park, CO

12:58 PM MDT on September 01, 2014 (GMT -0600)
RAWS CHAPIN CO US | Change Station
CLOSE
Current Station
Personal Weather Station
Location: Mesa Verde, CO
Elevation: 7125 ft
Nearby Weather Stations

Elev 7125 ft 37.20 °N, 108.49 °W | Updated 28 minutes ago

Clear
Clear
79 °F
Feels Like 78 °F
N
7
Wind Variable Wind from WSW
Gusts 14.0 mph

Today
High -- | Low -- °F
--% Chance of Precip.
Yesterday
High -- | Low -- °F
Precip. -- in
6:44 AM 7:42 PM
Waxing Crescent, 43% visible
Pressure 29.90 in
Visibility 10.0 miles
Clouds Clear
Heat Index 78 °F
Dew Point 34 °F
Humidity 20%
Rainfall 0.00 in
Snow Depth Not available.
UV 11 out of 12
Pollen 9.20 out of 12
Air Quality Not available.
Flu Activity Not available.
METAR KCEZ 011853Z AUTO 29014G20KT 10SM CLR 29/01 A3013 RMK AO2 SLP123 T02890006 $

More Conditions Fewer Conditions

Pressure 29.90 in
Visibility 10.0 miles
Clouds Clear
Heat Index 78 °F
Dew Point 34 °F
Humidity 20%
Rainfall 0.00 in
Snow Depth Not available.
UV 11 out of 12
Pollen 9.20 out of 12
Air Quality Not available.
Flu Activity Not available.
METAR KCEZ 011853Z AUTO 29014G20KT 10SM CLR 29/01 A3013 RMK AO2 SLP123 T02890006 $

More Conditions Fewer Conditions

10-Day Weather Forecast

Almanac

Astronomy

Sep. 01, 2014 Rise Set
Actual Time 6:44 AM MDT 7:42 PM MDT
Civil Twilight 6:17 AM MDT 8:08 PM MDT
Nautical Twilight 5:45 AM MDT 8:40 PM MDT
Astronomical Twilight 5:13 AM MDT 9:13 PM MDT
Moon 1:24 PM MDT 11:55 PM MDT
Length of Visible Light 13h 51m
Length of Day
12h 58m
Tomorrow will be 2m 18s shorter.
Waxing Crescent, 43% of the Moon is Illuminated
Today
Waxing Crescent
Sep 2
First Quarter
Sep 8
Full
Sep 15
Last Quarter
Sep 24
New

Today's Extremes

State Highs State Lows

Community

WunderPhotos

Upload Photos

1,749,359 photos uploaded!

Nearby

Snow Depth

Station Depth Elevation
Lone Cone 8 in 9600 ft
Lizard Head Pass 0 in 10200 ft
Stump Lakes 0 in 11200 ft
Red Mountain Pass 0 in 11150 ft
Idarado 10 in 9800 ft

Earthquake Activity

City Distance Mag. Time & Date
No recent earthquake activity has been reported nearby.
Minimum magnitude displayed is 2.5.

Coastal Water Temperatures

Place Temperature
No Stations Reporting

Nearby Weather Stations